Time;durP1;ratioP1;P1;durP2;ratioP2;P2;SDS_P1;SDS_P2;PMS_P1;PMS_P2;Temp;Humidity;BMP_temperature;BMP_pressure;BME280_temperature;BME280_humidity;BME280_pressure;Samples;Min_cycle;Max_cycle;Signal;HPM_P1;HPM_P2
2023/07/16 00:00:04;;;;;;;26.50;17.30;;;;;;;-143.21;69.08;71086.75;5120348;27;21056;-80
2023/07/16 00:02:55;;;;;;;26.13;17.63;;;;;;;-143.21;69.02;71104.59;5114397;27;20206;-80
2023/07/16 00:08:30;;;;;;;20.45;14.82;;;;;;;-143.21;68.53;71094.69;5112435;27;20245;-80
2023/07/16 00:11:16;;;;;;;24.92;13.32;;;;;;;-143.21;67.74;71074.88;5119179;27;20295;-79
2023/07/16 00:14:02;;;;;;;20.05;13.38;;;;;;;-143.21;67.90;71064.97;5114661;27;20215;-79
2023/07/16 00:16:50;;;;;;;20.83;12.93;;;;;;;-143.21;67.35;71061.00;5109318;27;20302;-78
2023/07/16 00:19:39;;;;;;;15.57;12.10;;;;;;;-143.21;66.90;71051.09;5119154;27;20220;-78
2023/07/16 00:22:44;;;;;;;19.38;12.57;;;;;;;-143.21;67.29;71051.09;5121502;27;20215;-78
2023/07/16 00:25:22;;;;;;;22.58;12.82;;;;;;;-143.21;67.29;71051.09;5115803;27;20215;-78
2023/07/16 00:30:38;;;;;;;18.90;12.55;;;;;;;-143.21;67.02;71055.06;5112776;27;20210;-78
2023/07/16 00:33:27;;;;;;;;;;;;;;;;;;;;;
2023/07/16 00:35:55;;;;;;;16.83;12.45;;;;;;;-143.21;67.20;71064.97;5119536;27;20202;-78
2023/07/16 00:38:37;;;;;;;15.43;11.98;;;;;;;-143.21;67.59;71078.84;5118329;27;20229;-78
2023/07/16 00:41:11;;;;;;;19.10;11.73;;;;;;;-143.21;68.16;71076.84;5115046;27;20191;-79
2023/07/16 00:44:04;;;;;;;;;;;;;;;;;;;;;
2023/07/16 00:50:18;;;;;;;17.95;12.23;;;;;;;-143.21;68.04;71084.78;5115569;27;20300;-78
2023/07/16 00:52:46;;;;;;;20.42;12.05;;;;;;;-143.21;68.29;71092.72;5118067;27;20207;-77
2023/07/16 00:55:17;;;;;;;16.83;12.20;;;;;;;-143.21;68.43;71106.59;5118253;27;20232;-78
2023/07/16 00:57:49;;;;;;;18.40;12.75;;;;;;;-143.21;69.39;71120.47;5118395;27;20252;-78
2023/07/16 01:03:21;;;;;;;17.50;12.10;;;;;;;-143.21;70.00;71140.28;5111927;27;20216;-79
2023/07/16 01:05:57;;;;;;;18.15;12.30;;;;;;;-143.21;69.97;71138.31;5117943;27;20229;-77
2023/07/16 01:08:48;;;;;;;15.60;11.88;;;;;;;-143.21;70.12;71130.38;5107767;27;20333;-79
2023/07/16 01:11:20;;;;;;;16.55;11.73;;;;;;;-143.21;69.86;71130.38;5114169;27;20222;-78
2023/07/16 01:13:50;;;;;;;16.27;11.68;;;;;;;-143.21;70.11;71126.41;5117381;27;20755;-77
2023/07/16 01:16:53;;;;;;;18.17;11.75;;;;;;;-143.21;69.68;71122.44;5118205;27;20207;-78
2023/07/16 01:19:21;;;;;;;16.15;11.02;;;;;;;-143.21;69.55;71116.50;5121480;27;20309;-78
2023/07/16 01:22:01;;;;;;;20.63;11.45;;;;;;;-143.21;69.17;71118.50;5117397;27;20204;-78
2023/07/16 01:25:06;;;;;;;17.83;11.23;;;;;;;-143.21;68.66;71108.56;5114243;27;20226;-79
2023/07/16 01:28:28;;;;;;;;;;;;;;;;;;;;;
2023/07/16 01:31:43;;;;;;;14.50;9.55;;;;;;;-143.21;66.61;71098.66;5121108;27;20201;-78
2023/07/16 01:34:26;;;;;;;12.27;8.93;;;;;;;-143.21;66.19;71090.72;5112837;27;20677;-78
2023/07/16 01:37:01;;;;;;;11.00;7.97;;;;;;;-143.21;64.84;71086.75;5116543;27;20208;-78
2023/07/16 01:39:30;;;;;;;12.23;8.10;;;;;;;-143.21;64.38;71078.84;5117499;27;20218;-78
2023/07/16 01:42:24;;;;;;;10.40;7.13;;;;;;;-143.21;63.32;71068.94;5120653;27;20210;-79
2023/07/16 01:45:13;;;;;;;14.43;7.72;;;;;;;-143.21;63.43;71064.97;5112680;27;20620;-78
2023/07/16 01:48:12;;;;;;;11.90;7.05;;;;;;;-143.21;62.63;71057.03;5120635;27;20964;-78
2023/07/16 01:50:42;;;;;;;9.07;6.95;;;;;;;-143.21;62.41;71051.09;5111190;27;20289;-78
2023/07/16 01:53:11;;;;;;;10.35;6.85;;;;;;;-143.21;62.37;71053.06;5120417;27;20203;-79
2023/07/16 01:55:57;;;;;;;;;;;;;;;;;;;;;
2023/07/16 01:58:33;;;;;;;11.05;6.68;;;;;;;-143.21;61.96;71059.00;5113702;27;20203;-78
2023/07/16 02:01:06;;;;;;;11.80;6.97;;;;;;;-143.21;61.89;71057.03;5112287;27;20195;-78
2023/07/16 02:03:40;;;;;;;8.85;6.60;;;;;;;-143.21;61.78;71061.00;5125190;27;20218;-78
2023/07/16 02:06:26;;;;;;;15.60;6.55;;;;;;;-143.21;61.73;71059.00;5120801;27;20202;-79
2023/07/16 02:09:09;;;;;;;9.88;6.43;;;;;;;-143.21;61.55;71055.06;5113415;27;20200;-79
2023/07/16 02:11:59;;;;;;;9.68;6.32;;;;;;;-143.21;61.42;71057.03;5117753;27;20647;-79
2023/07/16 02:14:39;;;;;;;13.57;7.13;;;;;;;-143.21;61.44;71053.06;5110356;27;20207;-79
2023/07/16 02:17:21;;;;;;;9.38;6.53;;;;;;;-143.21;61.36;71059.00;5118096;27;20587;-79
2023/07/16 02:19:55;;;;;;;9.85;6.38;;;;;;;-143.21;61.22;71061.00;5117072;27;20257;-79
2023/07/16 02:25:44;;;;;;;10.55;6.10;;;;;;;-143.21;61.68;71068.94;5110542;27;20191;-79
2023/07/16 02:28:23;;;;;;;11.55;6.60;;;;;;;-143.21;61.70;71064.97;5119065;27;20299;-79
2023/07/16 02:38:05;;;;;;;11.25;6.35;;;;;;;-143.21;61.59;71084.78;5070342;28;20200;-79
2023/07/16 02:40:57;;;;;;;11.75;5.88;;;;;;;-143.21;61.36;71080.81;5078514;28;20719;-79
2023/07/16 02:43:33;;;;;;;13.90;6.25;;;;;;;-143.21;61.49;71078.84;5122501;27;20217;-77
2023/07/16 02:46:04;;;;;;;7.95;6.03;;;;;;;-143.21;61.65;71078.84;5108139;28;20207;-78
2023/07/16 02:48:34;;;;;;;14.65;6.50;;;;;;;-143.21;61.89;71086.75;5118221;27;20207;-78
2023/07/16 02:51:08;;;;;;;12.95;6.00;;;;;;;-143.21;61.23;71086.75;5110231;28;20231;-78
2023/07/16 02:53:54;;;;;;;8.50;5.88;;;;;;;-143.21;61.44;71092.72;5108909;28;20220;-78
2023/07/16 02:56:33;;;;;;;11.30;6.00;;;;;;;-143.21;61.25;71090.72;5116949;28;20203;-77
2023/07/16 02:59:06;;;;;;;11.07;6.38;;;;;;;-143.21;61.29;71090.72;5111405;28;20306;-77
2023/07/16 03:01:35;;;;;;;8.65;6.30;;;;;;;-143.21;61.52;71092.72;5118896;28;20207;-77
2023/07/16 03:04:06;;;;;;;10.40;5.95;;;;;;;-143.21;60.87;71092.72;5112252;28;20196;-77
2023/07/16 03:06:35;;;;;;;9.00;5.55;;;;;;;-143.21;61.18;71098.66;5113259;28;20207;-77
2023/07/16 03:09:03;;;;;;;6.95;5.70;;;;;;;-143.21;61.15;71094.69;5119232;28;20207;-78
2023/07/16 03:12:00;;;;;;;8.63;5.80;;;;;;;-143.21;61.08;71102.63;5109956;28;20287;-77
2023/07/16 03:14:28;;;;;;;6.65;5.60;;;;;;;-143.21;61.27;71108.56;5111182;28;20701;-77
2023/07/16 03:19:59;;;;;;;8.63;5.45;;;;;;;-143.21;61.23;71112.53;5107587;27;20306;-79
2023/07/16 03:25:53;;;;;;;9.73;5.50;;;;;;;-143.21;61.12;71120.47;5102300;27;20707;-79
2023/07/16 03:29:02;;;;;;;14.18;5.50;;;;;;;-143.21;61.31;71122.44;5121436;27;20208;-78
2023/07/16 03:31:38;;;;;;;8.65;5.22;;;;;;;-143.21;61.56;71126.41;5119869;27;20203;-78
2023/07/16 03:34:12;;;;;;;8.65;5.50;;;;;;;-143.21;61.48;71118.50;5118868;27;20231;-78
2023/07/16 03:36:45;;;;;;;10.13;5.30;;;;;;;-143.21;61.23;71120.47;5112209;27;20219;-79
2023/07/16 03:39:22;;;;;;;10.45;6.03;;;;;;;-143.21;61.49;71116.50;5114338;27;20709;-78
2023/07/16 03:42:23;;;;;;;;;;;;;;;;;;;;;
2023/07/16 03:45:06;;;;;;;9.02;5.72;;;;;;;-143.21;60.87;71122.44;5114225;27;20631;-77
2023/07/16 03:47:42;;;;;;;10.82;6.13;;;;;;;-143.21;61.07;71122.44;5113417;27;20204;-76
2023/07/16 03:53:14;;;;;;;9.68;5.57;;;;;;;-143.21;61.73;71134.34;5120282;27;20207;-78
2023/07/16 03:56:00;;;;;;;9.02;6.10;;;;;;;-143.21;61.75;71132.38;5110127;27;20267;-78
2023/07/16 04:02:09;;;;;;;10.13;6.57;;;;;;;-143.21;61.88;71148.22;5114802;27;20234;-77
2023/07/16 04:14:27;;;;;;;11.50;6.68;;;;;;;-143.21;62.46;71158.13;5110711;27;20195;-78
2023/07/16 04:23:53;;;;;;;12.88;6.43;;;;;;;-143.21;62.88;71152.19;5014790;27;20728;-79
2023/07/16 04:29:59;;;;;;;;;;;;;;;;;;;;;
2023/07/16 04:32:59;;;;;;;10.50;6.57;;;;;;;-143.21;62.54;71156.16;5118457;27;20203;-78
2023/07/16 04:41:58;;;;;;;11.90;6.45;;;;;;;-143.21;62.94;71166.06;5075085;27;20204;-78
2023/07/16 04:44:55;;;;;;;13.18;6.38;;;;;;;-143.21;63.29;71158.13;5116587;27;20199;-78
2023/07/16 04:47:45;;;;;;;8.48;6.47;;;;;;;-143.21;62.83;71162.09;5111569;27;20661;-78
2023/07/16 04:50:56;;;;;;;11.05;7.20;;;;;;;-143.21;62.93;71158.13;5078987;27;20235;-79
2023/07/16 04:53:54;;;;;;;18.25;6.80;;;;;;;-143.21;62.33;71156.16;5112148;27;20211;-78
2023/07/16 05:11:37;;;;;;;;;;;;;;;;;;;;;
2023/07/16 05:20:00;;;;;;;11.98;6.88;;;;;;;-143.21;61.17;71132.38;5102972;27;20232;-78
2023/07/16 05:22:58;;;;;;;10.95;7.00;;;;;;;-143.21;61.15;71130.38;5118691;27;20222;-78
2023/07/16 05:31:23;;;;;;;13.30;6.72;;;;;;;-143.21;60.56;71122.44;5107878;27;20283;-79
2023/07/16 05:33:51;;;;;;;12.20;6.88;;;;;;;-143.21;60.86;71118.50;5108578;27;20215;-79
2023/07/16 05:36:21;;;;;;;15.10;6.97;;;;;;;-143.21;60.94;71118.50;5111429;27;20203;-78
2023/07/16 05:38:50;;;;;;;12.43;6.38;;;;;;;-143.21;60.25;71110.56;5108103;27;20208;-79
2023/07/16 05:41:18;;;;;;;12.25;6.93;;;;;;;-143.21;61.02;71110.56;5118234;27;20226;-78
2023/07/16 05:46:39;;;;;;;11.70;6.93;;;;;;;-143.21;60.72;71098.66;5115512;27;20192;-78
2023/07/16 05:49:11;;;;;;;18.27;7.25;;;;;;;-143.21;60.00;71102.63;5111309;27;20200;-78
2023/07/16 05:51:43;;;;;;;9.00;6.50;;;;;;;-143.21;59.31;71098.66;5113353;27;20272;-78
2023/07/16 05:54:16;;;;;;;9.13;6.82;;;;;;;-143.21;59.72;71098.66;5121338;27;20207;-78
2023/07/16 05:56:51;;;;;;;12.57;6.68;;;;;;;-143.21;59.59;71088.75;5111127;27;20298;-76
2023/07/16 06:02:09;;;;;;;8.88;6.63;;;;;;;-143.21;59.31;71082.81;5116903;27;20203;-78
2023/07/16 06:13:39;;;;;;;11.45;6.40;;;;;;;-143.21;58.65;71066.94;5099104;27;20262;-78
2023/07/16 06:16:37;;;;;;;10.32;6.43;;;;;;;-143.21;58.19;71055.06;5111183;27;20231;-79
2023/07/16 06:19:08;;;;;;;9.00;6.53;;;;;;;-143.21;58.12;71061.00;5105705;27;20207;-79
2023/07/16 06:27:58;;;;;;;8.13;6.55;;;;;;;-143.21;58.05;71076.84;5107525;27;20235;-79
2023/07/16 06:30:30;;;;;;;10.52;6.47;;;;;;;-143.21;58.60;71062.97;5099274;28;20210;-79
2023/07/16 06:33:00;;;;;;;14.50;6.63;;;;;;;-143.21;58.46;71051.09;5110310;27;20223;-80
2023/07/16 06:35:28;;;;;;;11.52;6.38;;;;;;;-143.21;57.90;71041.16;5110701;27;20203;-79
2023/07/16 06:37:56;;;;;;;12.18;6.97;;;;;;;-143.21;57.66;71029.28;5107600;28;20203;-79
2023/07/16 06:40:33;;;;;;;13.43;6.53;;;;;;;-143.21;57.06;71017.38;5116465;27;20263;-79
2023/07/16 06:45:54;;;;;;;14.50;6.22;;;;;;;-143.21;57.04;71001.53;5111445;27;20209;-78
2023/07/16 06:48:22;;;;;;;8.80;5.88;;;;;;;-143.21;57.58;70995.56;5117883;28;20416;-79
2023/07/16 06:50:52;;;;;;;12.25;6.47;;;;;;;-143.21;56.86;70991.63;5121439;28;20225;-79
2023/07/16 06:53:23;;;;;;;11.82;6.45;;;;;;;-143.21;57.04;70991.63;5117985;28;20227;-78
2023/07/16 06:56:01;;;;;;;11.50;6.28;;;;;;;-143.21;57.18;70969.81;5117726;27;20692;-79
2023/07/16 06:58:35;;;;;;;11.48;6.63;;;;;;;-143.21;57.55;70969.81;5115415;28;20213;-79
2023/07/16 07:01:03;;;;;;;16.00;6.63;;;;;;;-143.21;57.08;70967.81;5115189;27;20207;-78
2023/07/16 07:03:30;;;;;;;8.80;6.53;;;;;;;-143.21;56.94;70961.88;5110983;27;20884;-77
2023/07/16 07:05:58;;;;;;;14.68;7.03;;;;;;;-143.21;56.84;70944.03;5118061;27;20195;-78
2023/07/16 07:08:30;;;;;;;12.65;7.20;;;;;;;-143.21;56.03;70944.03;5117822;27;20666;-79
2023/07/16 07:11:05;;;;;;;8.95;6.78;;;;;;;-143.21;56.68;70936.09;5122301;27;20285;-78
2023/07/16 07:13:35;;;;;;;9.10;7.32;;;;;;;-143.21;55.93;70926.19;5125974;27;20207;-78
2023/07/16 07:16:07;;;;;;;11.48;7.95;;;;;;;-143.21;56.21;70922.22;5123759;27;20617;-77
2023/07/16 07:18:35;;;;;;;13.77;6.53;;;;;;;-143.21;55.98;70914.31;5122237;27;20206;-78
2023/07/16 07:21:15;;;;;;;10.88;7.07;;;;;;;-143.21;55.97;70904.38;5112833;27;20306;-78
2023/07/16 07:23:50;;;;;;;10.65;6.70;;;;;;;-143.21;55.37;70908.34;5124126;27;20199;-78
2023/07/16 07:27:26;;;;;;;11.77;7.15;;;;;;;-143.21;55.72;70910.34;5124936;27;20210;-79
2023/07/16 07:33:46;;;;;;;;;;;;;;;;;;;;;
2023/07/16 07:36:29;;;;;;;8.80;5.57;;;;;;;-143.21;53.07;70979.72;4990988;28;20225;-87
2023/07/16 07:38:56;;;;;;;9.48;6.15;;;;;;;-143.21;52.85;70983.69;5043749;28;20657;-82
2023/07/16 07:44:39;;;;;;;15.38;6.53;;;;;;;-143.21;54.01;70967.81;5068095;27;20204;-83
2023/07/16 07:47:14;;;;;;;11.52;7.55;;;;;;;-143.21;56.81;70957.91;5116742;27;20210;-82
2023/07/16 07:49:44;;;;;;;12.07;7.68;;;;;;;-143.21;55.77;70922.22;5122263;27;20249;-81
2023/07/16 07:52:31;;;;;;;13.75;8.73;;;;;;;-143.21;55.11;70912.31;5124583;27;20244;-82
2023/07/16 07:54:59;;;;;;;16.17;7.13;;;;;;;-143.21;55.08;70896.47;5110658;27;20211;-82
2023/07/16 07:57:26;;;;;;;14.75;8.85;;;;;;;-143.21;54.82;70884.56;5114400;27;20279;-82
2023/07/16 07:59:57;;;;;;;14.85;8.15;;;;;;;-143.21;54.69;70878.63;5121286;27;20203;-81
2023/07/16 08:02:39;;;;;;;14.15;7.47;;;;;;;-143.21;53.62;70880.59;5116752;27;20207;-81
2023/07/16 08:05:08;;;;;;;12.50;7.88;;;;;;;-143.21;54.40;70882.59;5114314;27;20236;-81
2023/07/16 08:07:36;;;;;;;16.63;7.97;;;;;;;-143.21;54.33;70902.41;5122812;27;20200;-82
2023/07/16 08:10:07;;;;;;;13.95;7.32;;;;;;;-143.21;54.74;70892.50;5114469;27;20682;-82
2023/07/16 08:19:31;;;;;;;17.90;8.02;;;;;;;-143.21;54.09;70846.91;5033405;28;20214;-82
2023/07/16 08:22:12;;;;;;;13.00;7.70;;;;;;;-143.21;53.46;70829.06;5049452;27;20232;-83
2023/07/16 08:24:49;;;;;;;12.90;7.53;;;;;;;-143.21;52.84;70819.16;5109985;27;20223;-82
2023/07/16 08:27:20;;;;;;;10.18;7.20;;;;;;;-143.21;51.28;70842.94;5112555;27;20199;-83
2023/07/16 08:33:14;;;;;;;9.68;6.97;;;;;;;-143.21;49.31;70835.00;5090895;27;20718;-82
2023/07/16 08:36:01;;;;;;;9.77;7.10;;;;;;;-143.21;52.23;70846.91;5115041;27;20217;-82
2023/07/16 08:38:51;;;;;;;8.98;7.35;;;;;;;-143.21;52.12;70801.31;5114836;27;20227;-83
2023/07/16 08:41:24;;;;;;;12.18;9.27;;;;;;;-143.21;51.41;70779.50;5119506;27;20340;-84
2023/07/16 08:43:52;;;;;;;15.13;8.05;;;;;;;-143.21;52.36;70769.59;5113981;27;20234;-83
2023/07/16 08:46:23;;;;;;;15.27;8.05;;;;;;;-143.21;51.62;70753.72;5110652;27;20264;-81
2023/07/16 08:49:10;;;;;;;15.35;9.05;;;;;;;-143.21;50.99;70751.75;5113990;27;20196;-88
2023/07/16 08:55:19;;;;;;;9.27;7.95;;;;;;;-143.21;50.77;70761.66;5036660;28;20202;-82
2023/07/16 08:57:53;;;;;;;15.15;7.93;;;;;;;-143.21;48.02;70757.69;5117323;27;20665;-83
2023/07/16 09:00:25;;;;;;;13.48;8.25;;;;;;;-143.21;50.01;70765.63;5110461;27;20732;-84
2023/07/16 09:02:54;;;;;;;10.40;8.05;;;;;;;-143.21;51.09;70725.97;5114600;27;20203;-85
2023/07/16 09:05:28;;;;;;;16.30;8.98;;;;;;;-143.21;51.63;70696.25;5113267;27;20272;-84
2023/07/16 09:08:00;;;;;;;15.45;7.88;;;;;;;-143.21;50.00;70658.59;5111170;27;20202;-83
2023/07/16 09:11:04;;;;;;;17.13;8.88;;;;;;;-143.21;48.56;70652.66;5116833;27;20279;-83
2023/07/16 09:14:03;;;;;;;15.63;8.63;;;;;;;-143.21;49.09;70609.03;5112056;27;20238;-84
2023/07/16 09:16:55;;;;;;;11.35;8.35;;;;;;;-143.21;48.03;70605.06;5109830;27;20212;-86
2023/07/16 09:22:46;;;;;;;22.25;12.82;;;;;;;-143.21;47.94;70595.16;5111256;27;20230;-82
2023/07/16 09:32:15;;;;;;;15.20;9.27;;;;;;;-143.21;46.77;70551.56;5056242;27;20299;-82
2023/07/16 09:35:01;;;;;;;9.18;7.78;;;;;;;-143.21;46.87;70511.91;5119789;27;20595;-84
2023/07/16 09:37:37;;;;;;;15.15;8.45;;;;;;;-143.21;46.51;70515.88;5107167;27;20290;-81
2023/07/16 09:43:46;;;;;;;12.52;8.73;;;;;;;-143.21;46.29;70450.47;5091205;27;20207;-80
2023/07/16 09:46:44;;;;;;;13.85;8.85;;;;;;;-143.21;45.58;70422.72;5108188;27;20204;-80
2023/07/16 09:49:25;;;;;;;15.32;8.75;;;;;;;-143.21;45.22;70410.81;5119754;27;20206;-79
2023/07/16 09:52:03;;;;;;;13.30;8.18;;;;;;;-143.21;45.29;70385.06;5108160;27;20321;-80
2023/07/16 09:54:53;;;;;;;13.73;9.10;;;;;;;-143.21;45.23;70365.25;5120603;27;20198;-81
2023/07/16 09:57:24;;;;;;;21.77;9.40;;;;;;;-143.21;44.41;70355.31;5094054;27;20204;-80
2023/07/16 09:59:54;;;;;;;11.80;8.50;;;;;;;-143.21;44.93;70353.34;5112544;27;20220;-79
2023/07/16 10:02:22;;;;;;;10.70;8.52;;;;;;;-143.21;43.98;70361.28;5111891;27;20227;-80
2023/07/16 10:05:14;;;;;;;13.88;8.93;;;;;;;-143.21;44.01;70349.38;5114532;27;20211;-80
2023/07/16 10:07:55;;;;;;;14.57;9.60;;;;;;;-143.21;44.68;70343.44;5117241;27;20206;-80
2023/07/16 10:11:01;;;;;;;;;;;;;;;;;;;;;
2023/07/16 10:13:32;;;;;;;13.05;9.32;;;;;;;-143.21;44.21;70317.66;5120425;27;20196;-80
2023/07/16 10:16:04;;;;;;;15.55;8.93;;;;;;;-143.21;43.93;70299.84;5107828;27;20192;-79
2023/07/16 10:18:34;;;;;;;17.25;8.40;;;;;;;-143.21;43.93;70274.06;5115514;27;20211;-79
2023/07/16 10:21:06;;;;;;;14.88;9.50;;;;;;;-143.21;43.12;70270.09;5118913;27;20207;-80
2023/07/16 10:27:31;;;;;;;;;;;;;;;;;;;;;
2023/07/16 10:30:21;;;;;;;13.40;9.35;;;;;;;-143.21;42.01;70246.31;5092779;27;20200;-80
2023/07/16 10:33:14;;;;;;;18.80;9.68;;;;;;;-143.21;42.47;70270.09;5071013;27;20260;-81
2023/07/16 10:39:13;;;;;;;13.15;9.10;;;;;;;-143.21;42.74;70198.75;5054204;28;20696;-80
2023/07/16 10:42:01;;;;;;;17.55;9.55;;;;;;;-143.21;42.42;70172.97;5102770;27;20235;-80
2023/07/16 10:44:54;;;;;;;15.73;9.18;;;;;;;-143.21;41.59;70159.13;5113474;27;20215;-80
2023/07/16 10:53:27;;;;;;;11.18;9.30;;;;;;;-143.21;40.11;70113.53;5107489;27;20217;-80
2023/07/16 10:56:02;;;;;;;13.18;9.60;;;;;;;-143.21;40.05;70139.28;5106839;28;20697;-81
2023/07/16 11:01:40;;;;;;;17.17;9.70;;;;;;;-143.21;39.98;70113.53;5113572;27;20360;-80
2023/07/16 11:04:12;;;;;;;17.63;9.00;;;;;;;-143.21;39.25;70109.56;5112755;28;20239;-80
2023/07/16 11:06:46;;;;;;;18.00;9.70;;;;;;;-143.21;39.02;70105.59;5112364;28;20665;-80
2023/07/16 11:09:30;;;;;;;18.95;9.68;;;;;;;-143.21;38.70;70101.63;5116979;28;20207;-80
2023/07/16 11:12:11;;;;;;;15.63;9.40;;;;;;;-143.21;38.39;70099.66;5118520;27;20292;-80
2023/07/16 11:14:39;;;;;;;13.60;8.60;;;;;;;-143.21;37.81;70117.50;5110074;28;20648;-80
2023/07/16 11:17:09;;;;;;;19.23;8.82;;;;;;;-143.21;37.71;70083.81;5110017;28;20206;-79
2023/07/16 11:19:50;;;;;;;;;;;;;;;;;;;;;
2023/07/16 11:25:32;;;;;;;16.85;9.65;;;;;;;-143.21;38.27;70008.50;5121936;28;20222;-79
2023/07/16 11:28:05;;;;;;;15.30;9.40;;;;;;;-143.21;37.96;69978.75;5115519;28;20200;-79
2023/07/16 11:30:42;;;;;;;18.02;9.27;;;;;;;-143.21;36.87;69960.94;5113949;27;20203;-80
2023/07/16 11:33:12;;;;;;;13.60;9.45;;;;;;;-143.21;36.78;69949.03;5123440;27;20661;-79
2023/07/16 11:35:49;;;;;;;16.10;8.63;;;;;;;-143.21;36.80;69929.22;5107498;28;21520;-80
2023/07/16 11:38:22;;;;;;;15.85;8.90;;;;;;;-143.21;36.33;69921.28;5121405;27;20645;-80
2023/07/16 11:41:05;;;;;;;16.58;9.18;;;;;;;-143.21;36.15;69919.31;5110146;28;20647;-80
2023/07/16 11:43:46;;;;;;;18.63;10.55;;;;;;;-143.21;36.59;69907.41;5112499;28;20231;-80
2023/07/16 11:46:29;;;;;;;13.55;9.50;;;;;;;-143.21;36.19;69889.59;5117834;27;20214;-80
2023/07/16 11:49:09;;;;;;;14.57;8.55;;;;;;;-143.21;35.86;69873.72;5111964;27;20275;-80
2023/07/16 11:54:34;;;;;;;14.57;9.07;;;;;;;-143.21;36.04;69863.81;5124308;27;20207;-81
2023/07/16 11:57:04;;;;;;;13.93;9.15;;;;;;;-143.21;35.27;69851.94;5116818;27;20199;-80
2023/07/16 11:59:37;;;;;;;13.23;9.20;;;;;;;-143.21;34.82;69844.00;5115567;27;20582;-81
2023/07/16 12:02:30;;;;;;;17.63;9.50;;;;;;;-143.21;34.54;69847.97;5122281;27;20234;-80
2023/07/16 12:10:47;;;;;;;11.40;9.20;;;;;;;-143.21;35.41;69824.19;5110427;27;20776;-81
2023/07/16 12:16:19;;;;;;;14.95;8.85;;;;;;;-143.21;34.63;69786.53;5122994;27;20200;-81
2023/07/16 12:18:49;;;;;;;11.25;8.73;;;;;;;-143.21;34.14;69764.75;5114792;27;20636;-80
2023/07/16 12:21:15;;;;;;;13.07;9.00;;;;;;;-143.21;33.96;69754.81;5111622;27;20204;-80
2023/07/16 12:23:42;;;;;;;16.50;9.05;;;;;;;-143.21;34.16;69737.00;5104145;27;20212;-82
2023/07/16 12:26:09;;;;;;;14.05;8.45;;;;;;;-143.21;33.46;69731.06;5114744;27;20211;-82
2023/07/16 12:28:37;;;;;;;12.20;8.48;;;;;;;-143.21;33.73;69711.22;5112338;27;20769;-82
2023/07/16 12:31:04;;;;;;;11.82;8.50;;;;;;;-143.21;33.17;69699.34;5120146;27;20200;-81
2023/07/16 12:33:31;;;;;;;14.27;8.63;;;;;;;-143.21;32.38;69701.31;5120045;27;20252;-80
2023/07/16 12:35:57;;;;;;;13.75;8.57;;;;;;;-143.21;32.64;69711.22;5122573;27;20203;-80
2023/07/16 12:38:24;;;;;;;14.23;8.60;;;;;;;-143.21;32.81;69689.44;5113555;27;20200;-80
2023/07/16 12:40:51;;;;;;;12.85;8.82;;;;;;;-143.21;33.30;69655.75;5112190;27;20200;-80
2023/07/16 12:43:18;;;;;;;14.73;8.65;;;;;;;-143.21;32.77;69667.63;5122968;27;20223;-82
2023/07/16 12:45:46;;;;;;;14.07;8.40;;;;;;;-143.21;32.38;69651.78;5115971;27;20200;-82
2023/07/16 12:48:13;;;;;;;14.35;8.43;;;;;;;-143.21;31.91;69620.06;5118239;27;20215;-81
2023/07/16 12:50:39;;;;;;;10.02;8.68;;;;;;;-143.21;31.41;69616.13;5116193;27;20239;-82
2023/07/16 12:53:06;;;;;;;15.07;8.68;;;;;;;-143.21;31.72;69624.03;5115101;27;20208;-80
2023/07/16 12:55:33;;;;;;;16.02;8.70;;;;;;;-143.21;31.81;69649.81;5111524;27;20204;-81
2023/07/16 12:58:00;;;;;;;12.68;7.85;;;;;;;-143.21;31.29;69657.72;5115956;27;20203;-81
2023/07/16 13:00:28;;;;;;;12.35;8.20;;;;;;;-143.21;31.93;69655.75;5112656;27;20933;-81
2023/07/16 13:02:56;;;;;;;15.18;8.20;;;;;;;-143.21;31.62;69628.00;5114020;27;20218;-83
2023/07/16 13:05:23;;;;;;;9.93;8.00;;;;;;;-143.21;31.01;69600.25;5118069;27;20213;-79
2023/07/16 13:07:50;;;;;;;15.32;8.15;;;;;;;-143.21;30.75;69580.44;5115207;27;20207;-81
2023/07/16 13:10:17;;;;;;;10.65;8.00;;;;;;;-143.21;30.93;69568.56;5112261;27;20211;-81
2023/07/16 13:12:43;;;;;;;12.95;8.23;;;;;;;-143.21;30.73;69560.63;5111516;28;20601;-82
2023/07/16 13:15:11;;;;;;;10.50;7.65;;;;;;;-143.21;30.50;69546.75;5111542;28;20422;-83
2023/07/16 13:17:38;;;;;;;12.35;7.80;;;;;;;-143.21;29.76;69524.97;5111519;28;20200;-83
2023/07/16 13:20:08;;;;;;;13.07;7.75;;;;;;;-143.21;29.44;69540.81;5110800;28;20674;-84
2023/07/16 13:22:35;;;;;;;11.77;7.70;;;;;;;-143.21;29.07;69532.88;5112366;27;20220;-83
2023/07/16 13:25:02;;;;;;;10.57;7.50;;;;;;;-143.21;29.42;69538.84;5121069;27;20253;-82
2023/07/16 13:27:29;;;;;;;13.52;7.95;;;;;;;-143.21;29.04;69536.84;5114684;27;20200;-82
2023/07/16 13:29:56;;;;;;;12.50;7.82;;;;;;;-143.21;29.02;69548.75;5114890;27;20204;-83
2023/07/16 13:32:23;;;;;;;11.63;7.63;;;;;;;-143.21;28.68;69538.84;5114405;27;20200;-82
2023/07/16 13:34:50;;;;;;;13.38;7.32;;;;;;;-143.21;28.65;69530.91;5114184;27;20200;-82
2023/07/16 13:37:18;;;;;;;11.50;7.53;;;;;;;-143.21;28.56;69532.88;5110777;28;20636;-86
2023/07/16 13:39:45;;;;;;;10.73;7.38;;;;;;;-143.21;28.65;69542.78;5111174;28;20200;-82
2023/07/16 13:42:12;;;;;;;10.13;7.45;;;;;;;-143.21;28.99;69521.00;5114178;27;20239;-82
2023/07/16 13:44:56;;;;;;;13.80;8.05;;;;;;;-143.21;28.60;69534.88;5118193;27;20280;-82
2023/07/16 13:47:23;;;;;;;15.07;7.20;;;;;;;-143.21;29.27;69513.06;5114683;27;20658;-82
2023/07/16 13:49:51;;;;;;;12.80;7.53;;;;;;;-143.21;29.07;69505.16;5110492;28;20221;-82
2023/07/16 13:52:19;;;;;;;10.18;7.82;;;;;;;-143.21;28.20;69503.16;5114281;27;20200;-81
2023/07/16 13:54:47;;;;;;;9.70;6.30;;;;;;;-143.21;28.67;69491.28;5107370;28;20211;-82
2023/07/16 13:57:14;;;;;;;12.70;7.30;;;;;;;-143.21;28.26;69499.19;5119517;27;20262;-82
2023/07/16 13:59:42;;;;;;;16.75;7.60;;;;;;;-143.21;28.45;69489.28;5114207;27;20587;-81
2023/07/16 14:02:09;;;;;;;11.95;7.05;;;;;;;-143.21;28.65;69485.34;5113587;27;20250;-82
2023/07/16 14:04:36;;;;;;;11.45;6.97;;;;;;;-143.21;29.12;69485.34;5113846;27;20203;-81
2023/07/16 14:07:03;;;;;;;12.25;7.10;;;;;;;-143.21;27.95;69469.47;5114306;27;20260;-80
2023/07/16 14:09:31;;;;;;;14.32;7.13;;;;;;;-143.21;28.31;69475.44;5117310;27;20242;-80
2023/07/16 14:11:58;;;;;;;10.48;6.82;;;;;;;-143.21;28.29;69505.16;5113851;27;20260;-81
2023/07/16 14:14:25;;;;;;;10.95;7.38;;;;;;;-143.21;28.21;69507.13;5110933;27;20219;-82
2023/07/16 14:16:53;;;;;;;10.48;6.75;;;;;;;-143.21;28.35;69511.09;5117316;27;20199;-88
2023/07/16 14:19:19;;;;;;;11.10;6.60;;;;;;;-143.21;28.56;69509.13;5111154;27;20674;-82
2023/07/16 14:21:46;;;;;;;9.77;6.93;;;;;;;-143.21;28.94;69509.13;5114059;27;20203;-81
2023/07/16 14:24:12;;;;;;;11.38;7.75;;;;;;;-143.21;28.90;69530.91;5120813;27;20207;-80
2023/07/16 14:26:40;;;;;;;10.40;7.30;;;;;;;-143.21;29.11;69540.81;5114331;28;20693;-80
2023/07/16 14:29:07;;;;;;;16.13;7.93;;;;;;;-143.21;29.43;69538.84;5116704;27;20573;-80
2023/07/16 14:31:34;;;;;;;17.10;7.60;;;;;;;-143.21;29.49;69550.72;5121498;27;20210;-80
2023/07/16 14:34:01;;;;;;;10.98;8.13;;;;;;;-143.21;29.65;69546.75;5118297;27;20200;-79
2023/07/16 14:36:28;;;;;;;13.15;7.40;;;;;;;-143.21;29.40;69544.78;5113069;27;20203;-79
2023/07/16 14:38:55;;;;;;;12.95;6.95;;;;;;;-143.21;29.61;69548.75;5118532;27;20207;-79
2023/07/16 14:41:22;;;;;;;9.95;7.35;;;;;;;-143.21;29.52;69560.63;5116765;27;20287;-80
2023/07/16 14:43:50;;;;;;;13.77;7.50;;;;;;;-143.21;29.30;69562.63;5110383;27;20700;-80
2023/07/16 14:46:17;;;;;;;12.27;7.43;;;;;;;-143.21;29.76;69548.75;5116343;27;20211;-81
2023/07/16 14:48:44;;;;;;;11.48;7.30;;;;;;;-143.21;29.77;69552.72;5117083;27;20207;-81
2023/07/16 14:51:12;;;;;;;13.48;7.60;;;;;;;-143.21;29.65;69550.72;5115732;28;20683;-80
2023/07/16 14:53:38;;;;;;;13.02;7.55;;;;;;;-143.21;29.64;69554.69;5112510;28;20328;-81
2023/07/16 14:56:06;;;;;;;15.60;7.90;;;;;;;-143.21;29.57;69558.66;5110808;28;20249;-80
2023/07/16 14:58:34;;;;;;;14.10;7.93;;;;;;;-143.21;29.03;69564.59;5115130;28;20260;-79
2023/07/16 15:01:03;;;;;;;13.00;7.43;;;;;;;-143.21;29.09;69566.56;5111306;28;20741;-83